Terminal Aerodrome Forecast
Issued by NWS

Home | Current Version | Previous Version | Text Only | Print | Product List | Glossary On
Versions: 1 2 3 4 5 6 7 8 9 10 11 12
000
FTUS45 KREV 301700
TAFTVL
TAF
KTVL 301739Z 3018/3118 19012G20KT P6SM SCT120 OVC180
     FM310200 19010KT P6SM SCT100 OVC180
     FM311500 19014G22KT P6SM BKN080 OVC150=

USA.gov is the U.S. government's official web portal to all federal, state and local government web resources and services.